createdAt,value
2018-08-07T00:01:13.281Z,3.40
2018-08-07T00:03:15.397Z,3.40
2018-08-07T00:05:17.549Z,3.30
2018-08-07T00:07:20.141Z,3.80
2018-08-07T00:09:22.269Z,4.07
2018-08-07T00:11:24.365Z,3.90
2018-08-07T00:13:26.537Z,3.00
2018-08-07T00:15:28.973Z,4.00
2018-08-07T00:17:31.105Z,3.47
2018-08-07T00:19:33.229Z,4.23
2018-08-07T00:21:35.323Z,3.37
2018-08-07T00:23:37.718Z,3.60
2018-08-07T00:25:39.858Z,3.10
2018-08-07T00:27:42.175Z,3.90
2018-08-07T00:29:44.287Z,3.50
2018-08-07T00:31:46.419Z,3.47
2018-08-07T00:33:48.545Z,3.30
2018-08-07T00:35:50.675Z,3.40
2018-08-07T00:37:52.899Z,3.40
2018-08-07T00:39:55.016Z,3.40
2018-08-07T00:41:57.143Z,3.70
2018-08-07T00:43:59.366Z,3.47
2018-08-07T00:46:01.523Z,3.20
2018-08-07T00:48:03.886Z,3.67
2018-08-07T00:50:10.476Z,3.70
2018-08-07T00:52:12.589Z,3.30
2018-08-07T00:54:14.718Z,4.00
2018-08-07T00:56:16.888Z,3.20
2018-08-07T00:58:19.018Z,3.60
2018-08-07T01:00:21.147Z,3.70
2018-08-07T01:02:23.303Z,3.33
2018-08-07T01:04:25.446Z,3.50
2018-08-07T01:06:27.578Z,3.43
2018-08-07T01:08:29.945Z,3.00
2018-08-07T01:10:32.076Z,3.47
2018-08-07T01:12:34.561Z,3.47
2018-08-07T01:14:36.699Z,3.40
2018-08-07T01:16:38.849Z,3.27
2018-08-07T01:18:41.030Z,3.30
2018-08-07T01:20:43.183Z,3.70
2018-08-07T01:22:45.418Z,3.60
2018-08-07T01:24:47.547Z,3.70
2018-08-07T01:26:49.667Z,3.50
2018-08-07T01:28:58.749Z,3.30
2018-08-07T01:31:00.881Z,3.50
2018-08-07T01:33:03.116Z,3.20
2018-08-07T01:35:05.292Z,3.63
2018-08-07T01:37:07.450Z,3.60
2018-08-07T01:39:10.564Z,3.40
2018-08-07T01:41:12.661Z,3.37
2018-08-07T01:43:14.790Z,2.90
2018-08-07T01:45:16.954Z,3.43
2018-08-07T01:47:19.097Z,3.63
2018-08-07T01:49:21.237Z,3.57
2018-08-07T01:51:23.373Z,3.23
2018-08-07T01:53:25.491Z,3.30
2018-08-07T01:55:27.881Z,3.30
2018-08-07T01:57:30.021Z,3.33
2018-08-07T01:59:32.145Z,3.57
2018-08-07T02:01:34.305Z,3.60
2018-08-07T02:03:36.426Z,3.47
2018-08-07T02:05:38.570Z,3.40
2018-08-07T02:07:41.318Z,3.43
2018-08-07T02:09:43.461Z,3.57
2018-08-07T02:11:45.581Z,3.47
2018-08-07T02:13:47.716Z,3.87
2018-08-07T02:15:49.880Z,3.60
2018-08-07T02:17:52.023Z,3.70
2018-08-07T02:19:54.941Z,3.50
2018-08-07T02:21:57.143Z,3.17
2018-08-07T02:23:59.270Z,3.90
2018-08-07T02:26:01.427Z,3.33
2018-08-07T02:28:03.583Z,3.43
2018-08-07T02:30:07.387Z,3.40
2018-08-07T02:32:09.509Z,3.20
2018-08-07T02:34:11.635Z,3.43
2018-08-07T02:36:13.774Z,3.37
2018-08-07T02:38:15.970Z,3.70
2018-08-07T02:40:18.123Z,3.47
2018-08-07T02:42:20.231Z,3.20
2018-08-07T02:44:22.341Z,3.43
2018-08-07T02:46:24.465Z,3.50
2018-08-07T02:48:26.586Z,3.80
2018-08-07T02:50:28.758Z,3.73
2018-08-07T02:52:30.934Z,3.30
2018-08-07T02:54:33.057Z,3.43
2018-08-07T02:56:35.187Z,3.03
2018-08-07T02:58:37.355Z,3.30
2018-08-07T03:00:42.617Z,3.40
2018-08-07T03:02:45.406Z,3.30
2018-08-07T03:04:47.543Z,3.30
2018-08-07T03:06:49.726Z,3.20
2018-08-07T03:08:51.870Z,3.73
2018-08-07T03:10:53.977Z,3.37
2018-08-07T03:12:56.085Z,3.90
2018-08-07T03:14:58.193Z,3.70
2018-08-07T03:17:00.313Z,3.70
2018-08-07T03:19:02.473Z,3.40
2018-08-07T03:21:04.661Z,3.57
2018-08-07T03:23:06.809Z,3.50
2018-08-07T03:25:10.861Z,3.20
2018-08-07T03:27:13.034Z,3.77
2018-08-07T03:29:15.126Z,3.23
2018-08-07T03:31:17.261Z,3.80
2018-08-07T03:33:19.433Z,3.50
2018-08-07T03:35:21.550Z,3.60
2018-08-07T03:37:23.678Z,3.87
2018-08-07T03:39:25.781Z,3.53
2018-08-07T03:41:27.919Z,3.20
2018-08-07T03:43:30.049Z,3.33
2018-08-07T03:45:32.165Z,3.63
2018-08-07T03:47:34.308Z,3.60
2018-08-07T03:49:36.471Z,3.90
2018-08-07T03:51:38.666Z,3.50
2018-08-07T03:53:40.805Z,3.87
2018-08-07T03:55:42.954Z,3.40
2018-08-07T03:57:45.596Z,3.43
2018-08-07T03:59:47.713Z,3.80
2018-08-07T04:01:49.842Z,3.50
2018-08-07T04:03:52.682Z,3.60
2018-08-07T04:05:54.827Z,3.60
2018-08-07T04:07:56.971Z,3.90
2018-08-07T04:09:59.122Z,3.57
2018-08-07T04:12:01.258Z,3.63
2018-08-07T04:14:03.701Z,3.63
2018-08-07T04:16:05.863Z,3.83
2018-08-07T04:18:08.007Z,3.73
2018-08-07T04:20:14.825Z,4.07
2018-08-07T04:22:16.970Z,3.77
2018-08-07T04:24:19.069Z,3.47
2018-08-07T04:26:21.200Z,3.30
2018-08-07T04:28:23.310Z,3.53
2018-08-07T04:30:25.422Z,3.70
2018-08-07T04:32:27.530Z,3.80
2018-08-07T04:34:29.677Z,3.50
2018-08-07T04:36:31.784Z,3.70
2018-08-07T04:38:33.929Z,3.83
2018-08-07T04:40:36.041Z,4.13
2018-08-07T04:42:39.089Z,3.53
2018-08-07T04:44:41.185Z,3.60
2018-08-07T04:46:43.336Z,3.50
2018-08-07T04:48:45.473Z,3.60
2018-08-07T04:50:47.593Z,3.60
2018-08-07T04:52:49.715Z,3.90
2018-08-07T04:54:52.196Z,3.60
2018-08-07T04:56:54.309Z,3.60
2018-08-07T04:58:56.421Z,3.67
2018-08-07T05:00:58.678Z,3.63
2018-08-07T05:03:00.823Z,3.53
2018-08-07T05:05:03.465Z,3.23
2018-08-07T05:07:05.713Z,3.90
2018-08-07T05:09:07.922Z,4.00
2018-08-07T05:11:10.030Z,3.87
2018-08-07T05:13:12.127Z,3.70
2018-08-07T05:15:14.510Z,3.97
2018-08-07T05:17:16.812Z,3.50
2018-08-07T05:19:18.986Z,3.60
2018-08-07T05:21:21.157Z,4.00
2018-08-07T05:23:23.336Z,3.40
2018-08-07T05:25:25.484Z,4.20
2018-08-07T05:27:27.605Z,3.93
2018-08-07T05:29:29.777Z,3.67
2018-08-07T05:31:31.913Z,3.57
2018-08-07T05:33:34.030Z,3.60
2018-08-07T05:35:36.149Z,3.60
2018-08-07T05:37:38.318Z,3.63
2018-08-07T05:39:40.461Z,4.10
2018-08-07T05:41:42.577Z,4.37
2018-08-07T05:43:44.802Z,4.07
2018-08-07T05:45:46.961Z,3.40
2018-08-07T05:47:49.109Z,3.63
2018-08-07T05:49:51.218Z,4.10
2018-08-07T05:51:53.389Z,3.87
2018-08-07T05:53:55.562Z,4.30
2018-08-07T05:55:57.739Z,3.70
2018-08-07T05:58:00.221Z,3.70
2018-08-07T06:00:03.998Z,3.87
2018-08-07T06:02:06.173Z,4.00
2018-08-07T06:04:08.316Z,4.00
2018-08-07T06:06:10.579Z,3.63
2018-08-07T06:08:12.762Z,3.97
2018-08-07T06:10:14.907Z,3.80
2018-08-07T06:12:17.038Z,3.60
2018-08-07T06:14:19.147Z,4.70
2018-08-07T06:16:21.300Z,3.73
2018-08-07T06:18:23.489Z,3.93
2018-08-07T06:20:25.678Z,3.80
2018-08-07T06:22:27.889Z,4.10
2018-08-07T06:24:30.106Z,3.73
2018-08-07T06:26:32.628Z,3.20
2018-08-07T06:28:35.102Z,3.93
2018-08-07T06:30:37.339Z,3.60
2018-08-07T06:32:39.548Z,4.00
2018-08-07T06:34:41.743Z,3.80
2018-08-07T06:36:43.904Z,4.00
2018-08-07T06:38:46.091Z,4.07
2018-08-07T06:40:48.282Z,4.00
2018-08-07T06:42:57.187Z,3.53
2018-08-07T06:44:59.388Z,3.70
2018-08-07T06:47:01.625Z,3.80
2018-08-07T06:49:04.007Z,3.70
2018-08-07T06:51:06.230Z,4.07
2018-08-07T06:53:08.440Z,3.70
2018-08-07T06:55:11.278Z,3.33
2018-08-07T06:57:13.678Z,3.77
2018-08-07T06:59:16.559Z,3.60
2018-08-07T07:01:19.033Z,3.23
2018-08-07T07:03:21.369Z,3.83
2018-08-07T07:05:23.797Z,3.63
2018-08-07T07:07:26.060Z,3.20
2018-08-07T07:09:28.502Z,4.23
2018-08-07T07:11:30.756Z,3.97
2018-08-07T07:13:33.062Z,3.80
2018-08-07T07:15:35.253Z,3.60
2018-08-07T07:17:37.458Z,3.70
2018-08-07T07:19:39.656Z,3.50
2018-08-07T07:21:42.007Z,4.10
2018-08-07T07:23:44.531Z,3.87
2018-08-07T07:25:47.162Z,3.30
2018-08-07T07:27:49.482Z,3.30
2018-08-07T07:29:51.882Z,3.60
2018-08-07T07:31:54.198Z,3.50
2018-08-07T07:33:56.564Z,3.80
2018-08-07T07:35:58.922Z,3.93
2018-08-07T07:38:01.306Z,3.70
2018-08-07T07:40:04.684Z,3.60
2018-08-07T07:42:07.091Z,3.50
2018-08-07T07:44:09.492Z,3.47
2018-08-07T07:46:11.928Z,4.10
2018-08-07T07:48:14.274Z,3.57
2018-08-07T07:50:18.507Z,3.80
2018-08-07T07:52:20.923Z,3.60
2018-08-07T07:54:23.298Z,3.40
2018-08-07T07:56:25.754Z,3.57
2018-08-07T07:58:28.147Z,3.63
2018-08-07T08:00:30.465Z,3.97
2018-08-07T08:02:32.873Z,3.40
2018-08-07T08:04:35.255Z,3.50
2018-08-07T08:06:37.704Z,3.60
2018-08-07T08:08:40.167Z,3.37
2018-08-07T08:10:42.545Z,3.37
2018-08-07T08:12:44.900Z,3.30
2018-08-07T08:14:47.213Z,3.13
2018-08-07T08:16:49.601Z,3.37
2018-08-07T08:18:52.046Z,3.47
2018-08-07T08:20:54.381Z,3.90
2018-08-07T08:22:56.725Z,3.20
2018-08-07T08:24:59.148Z,3.50
2018-08-07T08:27:01.512Z,3.70
2018-08-07T08:29:03.920Z,3.70
2018-08-07T08:31:06.509Z,3.17
2018-08-07T08:33:08.904Z,3.20
2018-08-07T08:35:12.912Z,3.30
2018-08-07T08:37:15.187Z,2.90
2018-08-07T08:39:17.582Z,3.50
2018-08-07T08:41:19.902Z,3.20
2018-08-07T08:43:22.267Z,3.33
2018-08-07T08:45:25.590Z,3.27
2018-08-07T08:47:27.958Z,3.57
2018-08-07T08:49:30.303Z,3.13
2018-08-07T08:51:32.635Z,3.00
2018-08-07T08:53:34.955Z,2.90
2018-08-07T08:55:37.344Z,3.30
2018-08-07T08:57:40.827Z,3.27
2018-08-07T08:59:43.149Z,3.00
2018-08-07T09:01:45.622Z,2.97
2018-08-07T09:03:48.127Z,3.60
2018-08-07T09:05:50.430Z,3.13
2018-08-07T09:07:52.814Z,3.20
2018-08-07T09:09:55.198Z,3.00
2018-08-07T09:11:57.548Z,3.17
2018-08-07T09:14:00.480Z,3.20
2018-08-07T09:16:02.899Z,3.20
2018-08-07T09:18:05.656Z,3.03
2018-08-07T09:20:12.010Z,3.20
2018-08-07T09:22:14.326Z,3.17
2018-08-07T09:24:16.859Z,3.27
2018-08-07T09:26:19.197Z,3.30
2018-08-07T09:28:21.734Z,3.07
2018-08-07T09:30:26.094Z,3.10
2018-08-07T09:32:28.423Z,3.20
2018-08-07T09:34:30.948Z,3.20
2018-08-07T09:36:33.278Z,3.13
2018-08-07T09:38:35.678Z,3.57
2018-08-07T09:40:38.093Z,3.87
2018-08-07T09:42:41.691Z,3.10
2018-08-07T09:44:43.994Z,3.50
2018-08-07T09:46:46.915Z,3.40
2018-08-07T09:48:49.309Z,3.40
2018-08-07T09:50:51.707Z,3.33
2018-08-07T09:52:53.983Z,3.47
2018-08-07T09:54:56.350Z,3.10
2018-08-07T09:56:58.712Z,3.07
2018-08-07T09:59:01.062Z,3.13
2018-08-07T10:01:09.478Z,3.50
2018-08-07T10:03:16.041Z,3.30
2018-08-07T10:05:19.186Z,3.27
2018-08-07T10:07:21.473Z,3.07
2018-08-07T10:09:23.837Z,3.10
2018-08-07T10:11:26.244Z,3.40
2018-08-07T10:13:28.633Z,2.97
2018-08-07T10:15:30.938Z,3.10
2018-08-07T10:17:33.666Z,2.93
2018-08-07T10:19:36.062Z,3.30
2018-08-07T10:21:38.561Z,3.17
2018-08-07T10:23:41.071Z,3.23
2018-08-07T10:25:43.501Z,3.83
2018-08-07T10:27:46.723Z,3.10
2018-08-07T10:29:49.107Z,3.10
2018-08-07T10:31:51.470Z,3.23
2018-08-07T10:33:53.804Z,2.90
2018-08-07T10:35:56.179Z,3.00
2018-08-07T10:37:58.547Z,3.23
2018-08-07T10:40:00.873Z,3.40
2018-08-07T10:42:03.381Z,3.33
2018-08-07T10:44:05.769Z,3.00
2018-08-07T10:46:08.153Z,2.83
2018-08-07T10:48:10.566Z,3.50
2018-08-07T10:50:14.902Z,3.10
2018-08-07T10:52:17.279Z,3.40
2018-08-07T10:54:19.627Z,3.17
2018-08-07T10:56:21.945Z,3.20
2018-08-07T10:58:24.735Z,3.53
2018-08-07T11:00:29.078Z,3.60
2018-08-07T11:02:31.518Z,2.90
2018-08-07T11:04:34.099Z,3.37
2018-08-07T11:06:36.657Z,3.53
2018-08-07T11:08:39.450Z,3.77
2018-08-07T11:10:41.891Z,3.40
2018-08-07T11:12:44.319Z,3.43
2018-08-07T11:14:46.687Z,3.43
2018-08-07T11:16:49.130Z,3.30
2018-08-07T11:18:51.591Z,3.43
2018-08-07T11:20:53.970Z,3.80
2018-08-07T11:22:57.941Z,3.30
2018-08-07T11:25:00.260Z,3.30
2018-08-07T11:27:02.586Z,3.60
2018-08-07T11:29:05.102Z,3.40
2018-08-07T11:31:07.495Z,3.10
2018-08-07T11:33:09.978Z,3.33
2018-08-07T11:35:12.500Z,3.97
2018-08-07T11:37:14.785Z,3.60
2018-08-07T11:39:17.132Z,2.90
2018-08-07T11:41:19.510Z,3.27
2018-08-07T11:43:21.821Z,3.67
2018-08-07T11:45:26.131Z,3.25
2018-08-07T11:47:28.568Z,3.33
2018-08-07T11:49:31.247Z,3.43
2018-08-07T11:51:33.581Z,3.35
2018-08-07T11:53:35.920Z,3.30
2018-08-07T11:55:38.531Z,4.08
2018-08-07T11:57:40.942Z,4.00
2018-08-07T11:59:43.945Z,3.58
2018-08-07T12:01:46.739Z,3.45
2018-08-07T12:03:49.080Z,3.65
2018-08-07T12:05:51.485Z,3.62
2018-08-07T12:07:53.923Z,3.42
2018-08-07T12:09:56.279Z,3.40
2018-08-07T12:11:58.632Z,3.60
2018-08-07T12:14:00.925Z,3.30
2018-08-07T12:16:03.268Z,3.52
2018-08-07T12:18:05.796Z,3.33
2018-08-07T12:20:08.211Z,4.05
2018-08-07T12:22:10.569Z,3.77
2018-08-07T12:24:12.952Z,4.12
2018-08-07T12:26:15.270Z,3.70
2018-08-07T12:28:17.719Z,5.50
2018-08-07T12:30:22.514Z,4.40
2018-08-07T12:32:24.917Z,4.60
2018-08-07T12:34:27.244Z,4.03
2018-08-07T12:36:29.611Z,4.30
2018-08-07T12:38:31.894Z,4.05
2018-08-07T12:40:34.229Z,4.30
2018-08-07T12:42:36.625Z,3.85
2018-08-07T12:44:39.115Z,3.77
2018-08-07T12:46:41.541Z,4.03
2018-08-07T12:48:43.974Z,4.50
2018-08-07T12:50:46.637Z,4.17
2018-08-07T12:52:48.984Z,3.90
2018-08-07T12:54:51.301Z,3.80
2018-08-07T12:56:53.653Z,3.58
2018-08-07T12:58:55.974Z,4.00
2018-08-07T13:00:58.304Z,3.70
2018-08-07T13:03:00.678Z,4.17
2018-08-07T13:05:03.001Z,4.53
2018-08-07T13:07:05.289Z,4.72
2018-08-07T13:09:09.550Z,4.30
2018-08-07T13:11:11.897Z,3.95
2018-08-07T13:13:14.219Z,3.95
2018-08-07T13:15:17.687Z,4.10
2018-08-07T13:17:20.075Z,4.15
2018-08-07T13:19:22.362Z,4.03
2018-08-07T13:21:24.703Z,3.95
2018-08-07T13:23:27.237Z,4.17
2018-08-07T13:25:29.533Z,4.20
2018-08-07T13:27:31.921Z,4.00
2018-08-07T13:29:34.289Z,3.95
2018-08-07T13:31:36.751Z,4.28
2018-08-07T13:33:38.992Z,4.75
2018-08-07T13:35:41.681Z,4.10
2018-08-07T13:37:45.382Z,4.03
2018-08-07T13:39:47.741Z,4.25
2018-08-07T13:41:50.185Z,4.03
2018-08-07T13:43:52.821Z,4.22
2018-08-07T13:45:55.187Z,4.35
2018-08-07T13:47:57.569Z,3.98
2018-08-07T13:49:59.904Z,6.78
2018-08-07T13:52:03.049Z,8.40
2018-08-07T13:54:05.426Z,5.05
2018-08-07T13:56:08.500Z,4.70
2018-08-07T13:58:10.857Z,4.58
2018-08-07T14:00:16.050Z,4.90
2018-08-07T14:02:18.466Z,4.28
2018-08-07T14:04:20.781Z,4.70
2018-08-07T14:06:23.102Z,4.45
2018-08-07T14:08:25.425Z,4.45
2018-08-07T14:10:28.829Z,5.15
2018-08-07T14:12:31.147Z,4.62
2018-08-07T14:14:33.449Z,4.53
2018-08-07T14:16:35.786Z,5.40
2018-08-07T14:18:38.133Z,4.35
2018-08-07T14:20:40.797Z,4.42
2018-08-07T14:22:43.306Z,4.75
2018-08-07T14:24:45.751Z,4.17
2018-08-07T14:26:48.186Z,4.75
2018-08-07T14:28:50.607Z,4.37
2018-08-07T14:30:52.906Z,4.90
2018-08-07T14:32:55.625Z,4.90
2018-08-07T14:34:57.975Z,5.28
2018-08-07T14:37:00.510Z,4.42
2018-08-07T14:39:03.905Z,4.40
2018-08-07T14:41:06.316Z,4.10
2018-08-07T14:43:08.848Z,5.15
2018-08-07T14:45:12.552Z,4.58
2018-08-07T14:47:15.238Z,4.62
2018-08-07T14:49:17.653Z,4.90
2018-08-07T14:51:19.937Z,4.87
2018-08-07T14:53:22.278Z,4.55
2018-08-07T14:55:24.994Z,4.78
2018-08-07T14:57:27.423Z,4.80
2018-08-07T14:59:29.737Z,4.70
2018-08-07T15:01:32.097Z,4.62
2018-08-07T15:03:34.477Z,4.90
2018-08-07T15:05:36.905Z,4.80
2018-08-07T15:07:39.369Z,4.87
2018-08-07T15:09:41.705Z,4.72
2018-08-07T15:11:44.077Z,4.75
2018-08-07T15:13:46.359Z,5.10
2018-08-07T15:15:48.718Z,4.60
2018-08-07T15:17:51.145Z,4.60
2018-08-07T15:19:53.481Z,5.10
2018-08-07T15:21:55.783Z,4.78
2018-08-07T15:23:58.195Z,4.60
2018-08-07T15:26:00.522Z,4.80
2018-08-07T15:28:02.882Z,5.10
2018-08-07T15:30:06.765Z,5.40
2018-08-07T15:32:09.245Z,4.90
2018-08-07T15:34:11.574Z,5.00
2018-08-07T15:36:13.938Z,5.40
2018-08-07T15:38:16.372Z,5.43
2018-08-07T15:40:19.238Z,5.90
2018-08-07T15:42:21.925Z,4.67
2018-08-07T15:44:24.268Z,5.70
2018-08-07T15:46:26.549Z,5.80
2018-08-07T15:48:29.029Z,5.17
2018-08-07T15:50:31.390Z,5.10
2018-08-07T15:52:33.727Z,5.40
2018-08-07T15:54:36.021Z,6.07
2018-08-07T15:56:38.323Z,5.53
2018-08-07T15:58:40.706Z,5.43
2018-08-07T16:00:43.046Z,5.30
2018-08-07T16:02:45.405Z,5.40
2018-08-07T16:04:47.850Z,4.73
2018-08-07T16:06:49.991Z,5.53
2018-08-07T16:08:52.215Z,5.20
2018-08-07T16:10:54.410Z,5.73
2018-08-07T16:12:56.585Z,5.30
2018-08-07T16:14:58.753Z,5.00
2018-08-07T16:17:01.192Z,5.50
2018-08-07T16:19:06.416Z,5.13
2018-08-07T16:21:08.672Z,5.63
2018-08-07T16:23:10.890Z,5.50
2018-08-07T16:25:14.524Z,5.73
2018-08-07T16:27:16.743Z,5.00
2018-08-07T16:29:18.906Z,5.23
2018-08-07T16:31:21.058Z,5.70
2018-08-07T16:33:23.237Z,5.50
2018-08-07T16:35:25.467Z,5.70
2018-08-07T16:37:27.618Z,5.27
2018-08-07T16:39:29.783Z,5.03
2018-08-07T16:41:32.688Z,5.20
2018-08-07T16:43:35.000Z,5.87
2018-08-07T16:45:37.290Z,5.30
2018-08-07T16:47:46.608Z,5.23
2018-08-07T16:49:51.127Z,5.67
2018-08-07T16:51:53.488Z,5.90
2018-08-07T16:53:56.019Z,5.93
2018-08-07T16:55:58.206Z,6.17
2018-08-07T16:58:02.038Z,5.80
2018-08-07T17:00:09.907Z,5.47
2018-08-07T17:02:12.300Z,5.10
2018-08-07T17:04:16.647Z,5.60
2018-08-07T17:06:18.888Z,4.97
2018-08-07T17:08:22.776Z,6.10
2018-08-07T17:10:27.511Z,5.40
2018-08-07T17:12:30.836Z,5.17
2018-08-07T17:14:33.086Z,5.30
2018-08-07T17:16:35.382Z,5.50
2018-08-07T17:18:37.565Z,6.00
2018-08-07T17:20:39.874Z,5.60
2018-08-07T17:22:42.558Z,5.80
2018-08-07T17:24:44.745Z,5.37
2018-08-07T17:26:46.932Z,6.27
2018-08-07T17:28:49.093Z,5.40
2018-08-07T17:30:51.254Z,6.03
2018-08-07T17:32:53.435Z,5.90
2018-08-07T17:34:55.801Z,5.80
2018-08-07T17:36:57.959Z,6.20
2018-08-07T17:39:00.125Z,5.97
2018-08-07T17:41:02.317Z,5.97
2018-08-07T17:43:04.557Z,4.97
2018-08-07T17:45:08.342Z,5.50
2018-08-07T17:47:10.590Z,5.03
2018-08-07T17:49:12.742Z,6.00
2018-08-07T17:51:15.058Z,5.80
2018-08-07T17:53:17.259Z,5.37
2018-08-07T17:55:19.478Z,5.20
2018-08-07T17:57:28.625Z,5.90
2018-08-07T17:59:30.849Z,5.30
2018-08-07T18:01:33.466Z,5.73
2018-08-07T18:03:35.676Z,5.10
2018-08-07T18:05:37.879Z,4.97
2018-08-07T18:07:41.896Z,5.30
2018-08-07T18:09:44.026Z,5.70
2018-08-07T18:11:46.246Z,5.63
2018-08-07T18:13:48.514Z,5.57
2018-08-07T18:15:57.368Z,6.07
2018-08-07T18:18:00.423Z,6.00
2018-08-07T18:20:02.674Z,5.60
2018-08-07T18:22:04.910Z,5.80
2018-08-07T19:17:32.594Z,6.50
2018-08-07T19:19:34.765Z,6.60
2018-08-07T19:21:36.969Z,6.43
2018-08-07T19:23:39.163Z,6.50
2018-08-07T19:25:41.332Z,6.90
2018-08-07T19:27:43.693Z,7.47
2018-08-07T19:29:45.878Z,6.87
2018-08-07T19:31:48.036Z,7.10
2018-08-07T19:33:50.203Z,7.13
2018-08-07T19:35:52.756Z,7.10
2018-08-07T19:37:55.090Z,6.00
2018-08-07T19:39:57.314Z,6.83
2018-08-07T19:42:00.165Z,6.10
2018-08-07T19:44:02.340Z,6.47
2018-08-07T19:46:04.676Z,6.70
2018-08-07T19:48:06.879Z,6.40
2018-08-07T19:50:10.418Z,5.90
2018-08-07T19:52:15.397Z,6.33
2018-08-07T19:54:17.635Z,6.67
2018-08-07T19:56:19.733Z,6.80
2018-08-07T19:58:21.903Z,8.43
2018-08-07T20:00:25.777Z,6.87
2018-08-07T20:02:27.881Z,6.23
2018-08-07T20:04:29.989Z,5.83
2018-08-07T20:06:32.123Z,6.93
2018-08-07T20:08:34.243Z,6.73
2018-08-07T20:10:36.412Z,6.43
2018-08-07T20:12:38.742Z,6.57
2018-08-07T20:14:40.893Z,6.63
2018-08-07T20:16:42.994Z,6.00
2018-08-07T20:18:45.133Z,6.60
2018-08-07T20:20:47.826Z,6.20
2018-08-07T20:22:50.011Z,5.63
2018-08-07T20:24:52.129Z,6.17
2018-08-07T20:26:54.289Z,6.00
2018-08-07T20:28:56.403Z,6.50
2018-08-07T20:30:58.696Z,6.90
2018-08-07T20:33:00.773Z,6.70
2018-08-07T20:35:03.532Z,7.07
2018-08-07T20:37:06.145Z,6.30
2018-08-07T20:39:09.834Z,6.30
2018-08-07T20:41:11.937Z,6.53
2018-08-07T20:43:14.102Z,7.63
2018-08-07T20:45:16.973Z,7.30
2018-08-07T20:47:19.482Z,7.10
2018-08-07T20:49:22.053Z,6.20
2018-08-07T20:51:24.227Z,6.00
2018-08-07T20:53:26.419Z,7.40
2018-08-07T20:55:28.545Z,6.40
2018-08-07T20:57:30.809Z,6.70
2018-08-07T20:59:32.933Z,8.53
2018-08-07T21:01:35.309Z,7.90
2018-08-07T21:03:37.667Z,7.40
2018-08-07T21:05:39.843Z,7.30
2018-08-07T21:07:42.287Z,7.13
2018-08-07T21:09:44.514Z,7.33
2018-08-07T21:11:46.995Z,6.40
2018-08-07T21:13:49.166Z,6.30
2018-08-07T21:15:51.369Z,7.20
2018-08-07T21:17:53.547Z,5.67
2018-08-07T21:19:55.821Z,6.37
2018-08-07T21:21:57.933Z,5.80
2018-08-07T21:24:00.084Z,6.23
2018-08-07T21:26:02.184Z,6.40
2018-08-07T21:28:04.626Z,6.37
2018-08-07T21:30:09.959Z,6.00
2018-08-07T21:32:12.167Z,5.60
2018-08-07T21:34:14.335Z,6.60
2018-08-07T21:36:17.487Z,5.97
2018-08-07T21:38:19.634Z,5.83
2018-08-07T21:40:22.723Z,6.20
2018-08-07T21:42:24.887Z,5.13
2018-08-07T21:44:27.010Z,5.70
2018-08-07T21:46:29.141Z,5.80
2018-08-07T21:48:31.302Z,6.13
2018-08-07T21:50:33.457Z,6.40
2018-08-07T21:52:35.939Z,6.00
2018-08-07T21:54:38.074Z,5.70
2018-08-07T21:56:40.214Z,5.97
2018-08-07T21:58:42.765Z,5.97
2018-08-07T22:00:46.182Z,6.07
2018-08-07T22:02:48.785Z,4.73
2018-08-07T22:04:50.996Z,5.97
2018-08-07T22:06:53.199Z,5.40
2018-08-07T22:08:55.369Z,5.80
2018-08-07T22:10:57.537Z,5.47
2018-08-07T22:12:59.701Z,5.70
2018-08-07T22:15:01.868Z,5.53
2018-08-07T22:17:04.301Z,5.93
2018-08-07T22:19:06.475Z,5.70
2018-08-07T22:21:08.618Z,5.77
2018-08-07T22:23:10.778Z,5.23
2018-08-07T22:25:12.902Z,5.17
2018-08-07T22:27:15.074Z,5.33
2018-08-07T22:29:17.227Z,5.67
2018-08-07T22:31:19.389Z,5.37
2018-08-07T22:33:21.561Z,5.60
2018-08-07T22:35:23.716Z,6.20
2018-08-07T22:37:26.176Z,5.70
2018-08-07T22:39:28.295Z,5.30
2018-08-07T22:41:30.444Z,5.60
2018-08-07T22:43:32.571Z,5.47
2018-08-07T22:45:34.720Z,5.80
2018-08-07T22:47:37.038Z,5.10
2018-08-07T22:49:39.333Z,5.20
2018-08-07T22:51:41.511Z,5.60
2018-08-07T22:53:43.741Z,5.60
2018-08-07T22:55:45.929Z,5.33
2018-08-07T22:57:48.106Z,5.67
2018-08-07T22:59:50.206Z,5.70
2018-08-07T23:01:52.460Z,5.43
2018-08-07T23:03:54.626Z,5.07
2018-08-07T23:05:56.833Z,6.00
2018-08-07T23:07:59.265Z,5.80
2018-08-07T23:10:01.379Z,5.17
2018-08-07T23:12:03.569Z,5.57
2018-08-07T23:14:05.933Z,6.03
2018-08-07T23:16:08.101Z,5.43
2018-08-07T23:18:10.244Z,5.63
2018-08-07T23:20:13.378Z,5.83
2018-08-07T23:22:15.489Z,5.30
2018-08-07T23:24:17.602Z,4.83
2018-08-07T23:26:20.143Z,5.67
2018-08-07T23:28:22.274Z,5.50
2018-08-07T23:30:24.377Z,5.53
2018-08-07T23:32:26.519Z,5.67
2018-08-07T23:34:28.654Z,5.37
2018-08-07T23:36:30.866Z,6.00
2018-08-07T23:38:33.004Z,5.87
2018-08-07T23:40:35.143Z,5.37
2018-08-07T23:42:37.558Z,5.27
2018-08-07T23:44:39.863Z,5.43
2018-08-07T23:46:41.961Z,5.70
2018-08-07T23:48:44.082Z,5.70
2018-08-07T23:50:46.482Z,5.40
2018-08-07T23:52:48.609Z,5.27
2018-08-07T23:54:50.701Z,5.07
2018-08-07T23:56:53.019Z,5.40
2018-08-07T23:58:55.122Z,6.20
